Time;durP1;ratioP1;P1;durP2;ratioP2;P2;SDS_P1;SDS_P2;PMS_P1;PMS_P2;Temp;Humidity;BMP_temperature;BMP_pressure;BME280_temperature;BME280_humidity;BME280_pressure;Samples;Min_cycle;Max_cycle;Signal;HPM_P1;HPM_P2
2023/06/16 00:01:31;;;;;;;9.07;5.82;;;13.30;99.90;;;;;;5091427;28;20044;-48
2023/06/16 00:03:58;;;;;;;8.50;6.18;;;13.30;99.90;;;;;;5074993;28;20044;-49
2023/06/16 00:06:29;;;;;;;8.13;6.05;;;13.20;99.90;;;;;;5094496;28;20123;-47
2023/06/16 00:08:56;;;;;;;9.15;6.57;;;13.10;99.90;;;;;;5093443;28;20051;-46
2023/06/16 00:11:25;;;;;;;8.40;6.00;;;13.10;99.90;;;;;;5091295;28;20075;-49
2023/06/16 00:13:51;;;;;;;10.60;6.07;;;13.10;99.90;;;;;;5091050;28;20144;-49
2023/06/16 00:16:21;;;;;;;10.75;6.18;;;13.20;99.90;;;;;;5067944;28;21881;-46
2023/06/16 00:18:57;;;;;;;14.77;7.13;;;13.00;99.90;;;;;;5092679;28;20062;-46
2023/06/16 00:21:35;;;;;;;9.45;6.90;;;12.90;99.90;;;;;;5090834;28;20047;-46
2023/06/16 00:24:02;;;;;;;9.60;7.18;;;13.00;99.90;;;;;;5091820;28;20047;-50
2023/06/16 00:26:27;;;;;;;9.95;7.28;;;12.80;99.90;;;;;;5070825;28;20044;-47
2023/06/16 00:28:53;;;;;;;8.25;6.45;;;13.40;99.90;;;;;;5073509;28;20055;-48
2023/06/16 00:31:19;;;;;;;10.82;6.65;;;12.80;99.90;;;;;;5074790;28;20039;-47
2023/06/16 00:33:44;;;;;;;9.73;6.68;;;12.70;99.90;;;;;;5090959;28;20043;-47
2023/06/16 00:36:10;;;;;;;9.70;6.40;;;12.70;99.90;;;;;;5093815;28;20051;-47
2023/06/16 00:38:36;;;;;;;8.95;7.07;;;12.70;99.90;;;;;;5093116;28;20043;-45
2023/06/16 00:41:02;;;;;;;8.25;6.70;;;12.80;99.90;;;;;;5093318;28;20051;-48
2023/06/16 00:43:27;;;;;;;9.88;7.63;;;12.70;99.90;;;;;;5091486;28;20130;-47
2023/06/16 00:45:53;;;;;;;10.27;7.88;;;12.70;99.90;;;;;;5092241;28;20043;-47
2023/06/16 00:48:20;;;;;;;10.88;8.10;;;12.40;99.90;;;;;;5091044;28;20047;-48
2023/06/16 00:50:47;;;;;;;8.60;7.22;;;12.60;99.90;;;;;;5092493;28;20074;-49
2023/06/16 00:53:13;;;;;;;10.77;8.23;;;12.50;99.90;;;;;;5090413;28;20051;-46
2023/06/16 00:55:40;;;;;;;12.07;7.68;;;12.50;99.90;;;;;;5090242;28;20227;-48
2023/06/16 00:58:07;;;;;;;12.23;8.05;;;12.60;99.90;;;;;;5090743;28;20051;-47
2023/06/16 01:00:35;;;;;;;12.73;7.80;;;12.40;99.90;;;;;;5091958;28;20027;-47
2023/06/16 01:03:05;;;;;;;10.15;8.35;;;12.20;99.90;;;;;;5089462;28;20086;-48
2023/06/16 01:05:33;;;;;;;12.40;8.50;;;12.40;99.90;;;;;;5089972;28;20067;-47
2023/06/16 01:08:22;;;;;;;12.00;8.82;;;12.40;99.90;;;;;;5090246;28;20043;-49
2023/06/16 01:11:06;;;;;;;12.45;9.48;;;12.40;99.90;;;;;;5090570;28;20042;-48
2023/06/16 01:13:56;;;;;;;11.48;9.23;;;12.30;99.90;;;;;;5090380;28;20511;-46
2023/06/16 01:16:28;;;;;;;10.90;9.32;;;12.40;99.90;;;;;;5091758;28;22250;-49
2023/06/16 01:18:55;;;;;;;12.23;9.70;;;12.30;99.90;;;;;;5089199;28;20054;-50
2023/06/16 01:21:52;;;;;;;15.93;9.98;;;12.20;99.90;;;;;;5069377;28;20047;-47
2023/06/16 01:24:23;;;;;;;13.85;10.40;;;12.20;99.90;;;;;;5088298;28;20055;-47
2023/06/16 01:26:54;;;;;;;12.52;9.55;;;12.10;99.90;;;;;;5091160;28;20682;-49
2023/06/16 01:29:25;;;;;;;12.75;9.93;;;12.20;99.90;;;;;;5088713;28;20047;-46
2023/06/16 01:31:59;;;;;;;12.98;10.07;;;12.20;99.90;;;;;;5090405;28;20040;-48
2023/06/16 01:34:26;;;;;;;11.50;9.65;;;12.10;99.90;;;;;;5090181;28;20071;-46
2023/06/16 01:36:54;;;;;;;14.85;9.85;;;12.10;99.90;;;;;;5090637;28;20508;-46
2023/06/16 01:39:21;;;;;;;12.18;9.82;;;12.10;99.90;;;;;;5090791;28;20572;-46
2023/06/16 01:41:48;;;;;;;11.15;9.07;;;12.00;99.90;;;;;;5091310;28;20040;-49
2023/06/16 01:44:16;;;;;;;12.98;10.20;;;12.00;99.90;;;;;;5090293;28;20459;-52
2023/06/16 01:46:43;;;;;;;14.00;9.25;;;11.90;99.90;;;;;;5089975;28;20035;-51
2023/06/16 01:49:09;;;;;;;12.38;10.20;;;12.00;99.90;;;;;;5073144;28;20046;-50
2023/06/16 01:51:35;;;;;;;11.63;9.23;;;12.10;99.90;;;;;;5092098;28;20055;-49
2023/06/16 01:54:01;;;;;;;10.45;9.35;;;11.80;99.90;;;;;;5092136;28;20047;-50
2023/06/16 01:56:29;;;;;;;10.95;9.10;;;11.80;99.90;;;;;;5091795;28;20105;-49
2023/06/16 01:58:55;;;;;;;11.10;9.73;;;11.80;99.90;;;;;;5091714;28;20052;-50
2023/06/16 02:01:28;;;;;;;12.35;10.30;;;11.80;99.90;;;;;;5092489;28;20089;-50
2023/06/16 02:03:59;;;;;;;11.75;10.25;;;10.60;99.90;;;;;;5091278;28;20189;-51
2023/06/16 02:06:40;;;;;;;14.53;11.30;;;11.90;99.90;;;;;;5093013;28;20330;-50
2023/06/16 02:09:09;;;;;;;14.52;11.05;;;11.80;99.90;;;;;;5090208;28;20471;-47
2023/06/16 02:11:36;;;;;;;12.68;11.35;;;11.80;99.90;;;;;;5090651;28;20055;-50
2023/06/16 02:14:03;;;;;;;16.38;11.07;;;9.80;99.90;;;;;;5089797;28;20111;-48
2023/06/16 02:16:34;;;;;;;13.50;10.82;;;11.90;99.90;;;;;;5091045;28;20313;-49
2023/06/16 02:19:01;;;;;;;12.53;11.23;;;11.90;99.90;;;;;;5090680;28;20091;-48
2023/06/16 02:21:27;;;;;;;14.15;10.90;;;11.70;99.90;;;;;;5070300;28;20054;-50
2023/06/16 02:23:52;;;;;;;12.00;10.10;;;11.80;99.90;;;;;;5070951;28;20039;-51
2023/06/16 02:26:18;;;;;;;11.68;10.05;;;11.80;99.90;;;;;;5090614;28;20044;-50
2023/06/16 02:28:44;;;;;;;11.10;9.90;;;11.90;99.90;;;;;;5072919;28;20064;-48
2023/06/16 02:31:12;;;;;;;11.50;10.30;;;11.90;99.90;;;;;;5090105;28;20774;-49
2023/06/16 02:33:40;;;;;;;12.25;9.43;;;11.80;99.90;;;;;;5071565;28;20113;-48
2023/06/16 02:36:05;;;;;;;9.95;8.55;;;11.70;99.90;;;;;;5093671;28;20048;-49
2023/06/16 02:38:31;;;;;;;10.65;9.30;;;11.80;99.90;;;;;;5095208;28;20087;-47
2023/06/16 02:40:57;;;;;;;9.32;8.32;;;11.70;99.90;;;;;;5093152;28;20105;-45
2023/06/16 02:43:22;;;;;;;10.98;9.10;;;11.60;99.90;;;;;;5092895;28;20130;-48
2023/06/16 02:45:48;;;;;;;11.70;9.25;;;11.50;99.90;;;;;;5094294;28;20035;-48
2023/06/16 02:48:14;;;;;;;16.58;9.90;;;11.80;99.90;;;;;;5075773;28;20430;-46
2023/06/16 02:50:40;;;;;;;11.80;10.57;;;11.50;99.90;;;;;;5093699;28;20043;-48
2023/06/16 02:53:05;;;;;;;14.40;11.00;;;11.40;99.90;;;;;;5092988;28;20144;-47
2023/06/16 02:55:32;;;;;;;17.60;11.15;;;11.70;99.90;;;;;;5093640;28;20429;-46
2023/06/16 02:57:57;;;;;;;14.02;11.20;;;11.40;99.90;;;;;;5093865;28;20035;-46
2023/06/16 03:00:23;;;;;;;21.67;11.52;;;11.50;99.90;;;;;;5094569;28;20062;-48
2023/06/16 03:02:49;;;;;;;14.90;12.45;;;11.70;99.90;;;;;;5073451;28;20748;-47
2023/06/16 03:05:18;;;;;;;14.20;11.90;;;11.40;99.90;;;;;;5094319;28;20131;-48
2023/06/16 03:07:44;;;;;;;12.65;11.30;;;11.50;99.90;;;;;;5094827;28;20055;-48
2023/06/16 03:10:11;;;;;;;16.33;11.10;;;11.50;99.90;;;;;;5094057;28;20444;-46
2023/06/16 03:12:37;;;;;;;12.02;10.80;;;11.60;99.90;;;;;;5092754;28;20074;-50
2023/06/16 03:15:03;;;;;;;15.48;11.60;;;11.40;99.90;;;;;;5095193;28;20126;-46
2023/06/16 03:17:30;;;;;;;14.10;11.25;;;11.50;99.90;;;;;;5094195;28;20066;-48
2023/06/16 03:19:55;;;;;;;13.50;11.40;;;11.70;99.90;;;;;;5093035;28;20047;-49
2023/06/16 03:22:21;;;;;;;16.48;12.82;;;11.60;99.90;;;;;;5093847;28;20043;-48
2023/06/16 03:24:47;;;;;;;17.48;12.02;;;11.60;99.90;;;;;;5094856;28;20112;-46
2023/06/16 03:27:15;;;;;;;13.00;11.65;;;11.70;99.90;;;;;;5074434;28;20075;-48
2023/06/16 03:29:40;;;;;;;12.50;11.20;;;11.60;99.90;;;;;;5092341;28;20200;-49
2023/06/16 03:32:07;;;;;;;13.15;11.32;;;11.70;99.90;;;;;;5091779;28;20138;-49
2023/06/16 03:34:32;;;;;;;13.57;12.18;;;11.80;99.90;;;;;;5074512;28;20044;-46
2023/06/16 03:36:59;;;;;;;19.10;14.27;;;11.80;99.90;;;;;;5092795;28;20592;-47
2023/06/16 03:39:25;;;;;;;16.77;14.20;;;11.90;99.90;;;;;;5091747;28;20048;-47
2023/06/16 03:41:52;;;;;;;15.27;13.55;;;11.90;99.90;;;;;;5090909;28;20065;-47
2023/06/16 03:44:18;;;;;;;15.20;13.60;;;11.90;99.90;;;;;;5075985;28;20093;-48
2023/06/16 03:46:43;;;;;;;15.85;14.25;;;12.00;99.90;;;;;;5091793;28;20421;-47
2023/06/16 03:49:10;;;;;;;20.00;16.48;;;12.20;99.90;;;;;;5090779;28;20707;-46
2023/06/16 03:51:37;;;;;;;18.20;16.30;;;12.10;99.90;;;;;;5091492;28;21196;-47
2023/06/16 03:54:03;;;;;;;15.07;13.48;;;12.30;99.90;;;;;;5092490;28;20124;-49
2023/06/16 03:56:29;;;;;;;16.77;15.18;;;12.30;99.90;;;;;;5090952;28;20050;-48
2023/06/16 03:58:55;;;;;;;17.77;15.10;;;12.50;99.90;;;;;;5069802;28;20050;-48
2023/06/16 04:01:22;;;;;;;16.33;14.65;;;12.50;99.90;;;;;;5092250;28;20047;-48
2023/06/16 04:03:49;;;;;;;17.40;15.70;;;12.50;99.90;;;;;;5092248;28;20055;-46
2023/06/16 04:06:15;;;;;;;20.20;16.70;;;12.70;99.90;;;;;;5092265;28;20044;-47
2023/06/16 04:08:41;;;;;;;21.48;18.27;;;12.90;99.90;;;;;;5071004;28;20836;-47
2023/06/16 04:11:07;;;;;;;21.60;19.45;;;12.90;99.90;;;;;;5092727;28;20116;-47
2023/06/16 04:13:33;;;;;;;22.33;20.00;;;13.10;99.90;;;;;;5091690;28;20035;-46
2023/06/16 04:15:59;;;;;;;22.67;20.38;;;13.30;99.90;;;;;;5092077;28;20051;-46
2023/06/16 04:18:24;;;;;;;24.88;20.27;;;13.40;99.90;;;;;;5089997;28;20036;-51
2023/06/16 04:20:50;;;;;;;22.35;20.02;;;13.40;99.90;;;;;;5091439;28;20116;-49
2023/06/16 04:23:16;;;;;;;23.77;21.45;;;13.60;99.90;;;;;;5091074;28;20090;-46
2023/06/16 04:25:42;;;;;;;22.88;20.58;;;13.80;99.90;;;;;;5091857;28;20035;-46
2023/06/16 04:28:13;;;;;;;23.60;21.17;;;13.90;99.90;;;;;;5091151;28;21831;-46
2023/06/16 04:30:40;;;;;;;21.05;18.85;;;14.00;99.90;;;;;;5092728;28;20119;-47
2023/06/16 04:33:07;;;;;;;22.70;20.40;;;14.10;99.90;;;;;;5092031;28;20056;-48
2023/06/16 04:35:34;;;;;;;22.80;20.60;;;14.60;99.90;;;;;;5090758;28;20036;-48
2023/06/16 04:38:00;;;;;;;24.38;22.05;;;14.60;99.90;;;;;;5075386;28;20047;-46
2023/06/16 04:40:27;;;;;;;23.55;21.23;;;14.90;99.90;;;;;;5092847;28;20104;-50
2023/06/16 04:42:53;;;;;;;25.30;20.52;;;14.80;99.90;;;;;;5091726;28;20486;-47
2023/06/16 04:45:20;;;;;;;23.50;20.33;;;14.90;99.90;;;;;;5091265;28;20032;-49
2023/06/16 04:47:46;;;;;;;26.58;20.42;;;15.10;99.90;;;;;;5091178;28;20040;-53
2023/06/16 04:50:13;;;;;;;25.02;21.58;;;15.00;99.90;;;;;;5089174;28;20444;-48
2023/06/16 04:52:39;;;;;;;23.48;20.98;;;15.00;99.90;;;;;;5091753;28;20043;-50
2023/06/16 04:55:06;;;;;;;23.73;21.35;;;15.10;99.90;;;;;;5072115;28;20053;-49
2023/06/16 04:57:33;;;;;;;24.27;21.90;;;15.00;99.90;;;;;;5089915;28;20040;-48
2023/06/16 05:00:00;;;;;;;24.20;21.60;;;15.10;99.90;;;;;;5071321;28;20324;-49
2023/06/16 05:02:26;;;;;;;24.00;20.90;;;15.00;99.90;;;;;;5090500;28;20059;-47
2023/06/16 05:04:52;;;;;;;24.13;21.52;;;15.20;99.90;;;;;;5070790;28;20473;-55
2023/06/16 05:07:18;;;;;;;23.23;20.58;;;15.30;99.90;;;;;;5089979;28;20295;-48
2023/06/16 05:09:45;;;;;;;25.23;21.52;;;15.30;99.90;;;;;;5091228;28;20092;-50
2023/06/16 05:12:11;;;;;;;24.27;20.42;;;15.70;99.90;;;;;;5092101;28;20514;-50
2023/06/16 05:14:37;;;;;;;25.35;21.35;;;15.60;99.90;;;;;;5089295;28;20043;-52
2023/06/16 05:17:03;;;;;;;27.35;23.02;;;15.60;99.90;;;;;;5090354;28;20032;-51
2023/06/16 05:19:30;;;;;;;23.98;21.40;;;15.90;99.90;;;;;;5089814;28;20032;-51
2023/06/16 05:21:55;;;;;;;24.20;20.95;;;15.90;99.90;;;;;;5091068;28;20043;-51
2023/06/16 05:24:21;;;;;;;25.50;23.02;;;15.80;99.90;;;;;;5088998;28;20046;-52
2023/06/16 05:26:47;;;;;;;21.42;19.20;;;16.10;99.90;;;;;;5090471;28;20047;-51
2023/06/16 05:29:12;;;;;;;22.13;19.58;;;16.10;99.90;;;;;;5090005;28;20116;-52
2023/06/16 05:31:38;;;;;;;22.25;19.90;;;16.30;99.90;;;;;;5092181;28;20500;-51
2023/06/16 05:34:04;;;;;;;24.48;18.95;;;16.30;99.90;;;;;;5089766;28;20046;-51
2023/06/16 05:36:34;;;;;;;22.35;20.10;;;16.50;99.90;;;;;;5091299;28;20105;-51
2023/06/16 05:39:01;;;;;;;22.95;20.48;;;16.70;99.90;;;;;;5092919;28;20047;-47
2023/06/16 05:41:28;;;;;;;25.35;19.58;;;16.60;99.90;;;;;;5088754;28;20072;-54
2023/06/16 05:43:57;;;;;;;21.65;17.90;;;16.80;99.90;;;;;;5088572;28;20431;-50
2023/06/16 05:46:22;;;;;;;19.45;17.58;;;16.90;99.90;;;;;;5072361;28;20088;-50
2023/06/16 05:48:48;;;;;;;21.58;19.25;;;17.00;99.90;;;;;;5089267;28;20044;-48
2023/06/16 05:51:15;;;;;;;20.30;18.23;;;16.90;99.90;;;;;;5090188;28;20486;-49
2023/06/16 05:53:41;;;;;;;22.65;18.67;;;17.00;99.90;;;;;;5090835;28;20694;-50
2023/06/16 05:56:07;;;;;;;21.23;19.00;;;16.80;99.90;;;;;;5090801;28;20043;-51
2023/06/16 06:06:15;;;;;;;19.80;15.43;;;17.50;99.90;;;;;;5067967;28;20070;-48
2023/06/16 06:08:41;;;;;;;18.58;15.23;;;17.70;99.90;;;;;;5072226;28;20040;-48
2023/06/16 06:11:07;;;;;;;18.15;16.05;;;17.90;99.90;;;;;;5055616;28;20124;-50
2023/06/16 06:13:33;;;;;;;17.42;15.63;;;18.00;99.90;;;;;;5074530;28;20027;-50
2023/06/16 06:16:00;;;;;;;16.77;14.98;;;18.10;99.90;;;;;;5072436;28;20149;-52
2023/06/16 06:18:26;;;;;;;19.83;15.00;;;18.30;99.90;;;;;;5073690;28;20056;-52
2023/06/16 06:20:51;;;;;;;16.02;14.32;;;19.00;99.90;;;;;;5074460;28;20516;-52
2023/06/16 06:23:17;;;;;;;15.82;13.48;;;19.40;99.90;;;;;;5072920;28;20108;-49
2023/06/16 06:25:43;;;;;;;15.43;13.93;;;19.50;99.90;;;;;;5072829;28;20036;-51
2023/06/16 06:28:09;;;;;;;16.17;13.65;;;19.70;99.90;;;;;;5073428;28;20095;-50
2023/06/16 06:30:36;;;;;;;15.43;12.90;;;19.40;99.90;;;;;;5074111;28;20051;-49
2023/06/16 06:33:02;;;;;;;15.30;13.70;;;19.60;99.90;;;;;;5073220;28;20047;-52
2023/06/16 06:35:28;;;;;;;13.23;10.98;;;19.70;99.90;;;;;;5072563;28;20040;-49
2023/06/16 06:37:54;;;;;;;12.82;11.48;;;19.60;99.90;;;;;;5075128;28;20071;-52
2023/06/16 06:40:20;;;;;;;14.25;12.70;;;19.70;99.90;;;;;;5073097;28;20051;-51
2023/06/16 06:42:46;;;;;;;15.13;12.45;;;19.90;99.90;;;;;;5075044;28;20048;-49
2023/06/16 06:45:13;;;;;;;16.25;13.65;;;19.90;99.90;;;;;;5073284;28;20048;-53
2023/06/16 06:47:39;;;;;;;12.55;11.27;;;20.00;99.90;;;;;;5073643;28;20040;-52
2023/06/16 06:50:05;;;;;;;13.10;11.80;;;20.20;99.90;;;;;;5073724;28;20089;-52
2023/06/16 06:52:31;;;;;;;13.00;10.68;;;20.50;99.90;;;;;;5075926;28;20079;-51
2023/06/16 06:54:56;;;;;;;11.40;10.20;;;20.90;99.90;;;;;;5056662;28;20517;-52
2023/06/16 06:57:23;;;;;;;12.70;10.68;;;21.20;99.90;;;;;;5056241;28;20036;-52
2023/06/16 06:59:49;;;;;;;13.45;9.95;;;21.20;99.90;;;;;;5074248;28;20197;-51
2023/06/16 07:02:16;;;;;;;11.93;10.45;;;21.40;99.90;;;;;;5074154;28;20052;-52
2023/06/16 07:04:42;;;;;;;12.95;10.27;;;21.70;99.90;;;;;;5079706;28;20261;-50
2023/06/16 07:07:08;;;;;;;13.80;11.85;;;21.40;99.90;;;;;;5094476;28;20079;-52
2023/06/16 07:09:35;;;;;;;12.07;10.75;;;21.50;99.90;;;;;;5096136;28;20047;-53
2023/06/16 07:12:01;;;;;;;11.80;10.52;;;22.20;99.90;;;;;;5094885;28;20039;-52
2023/06/16 07:14:29;;;;;;;13.82;10.52;;;23.40;99.90;;;;;;5093202;28;20031;-52
2023/06/16 07:16:57;;;;;;;12.60;9.25;;;24.30;99.90;;;;;;5094171;28;20575;-52
2023/06/16 07:19:26;;;;;;;11.30;8.95;;;24.60;99.90;;;;;;5074286;28;20050;-53
2023/06/16 07:21:56;;;;;;;10.27;7.57;;;25.40;99.90;;;;;;5073163;28;20051;-53
2023/06/16 07:24:22;;;;;;;8.70;7.80;;;26.00;99.90;;;;;;5074151;28;20408;-55
2023/06/16 07:26:48;;;;;;;8.07;6.93;;;26.60;99.90;;;;;;5093242;28;20296;-53
2023/06/16 07:29:14;;;;;;;8.52;6.70;;;27.20;99.90;;;;;;5091237;28;20109;-53
2023/06/16 07:31:40;;;;;;;13.13;7.18;;;30.20;99.90;;;;;;5091643;28;20043;-52
2023/06/16 07:34:06;;;;;;;7.05;6.05;;;28.00;99.90;;;;;;5091842;28;20853;-52
2023/06/16 07:36:33;;;;;;;7.47;6.68;;;28.20;99.90;;;;;;5092913;28;20039;-50
2023/06/16 07:38:59;;;;;;;6.95;5.13;;;28.70;99.90;;;;;;5092179;28;20047;-54
2023/06/16 07:41:25;;;;;;;7.78;5.28;;;28.70;99.90;;;;;;5090052;28;20053;-54
2023/06/16 07:43:50;;;;;;;12.43;5.07;;;29.20;99.90;;;;;;5090228;28;20044;-55
2023/06/16 07:46:19;;;;;;;7.80;5.40;;;29.30;99.90;;;;;;5091758;28;20047;-54
2023/06/16 07:48:46;;;;;;;10.00;5.30;;;29.30;99.90;;;;;;5090276;28;20039;-54
2023/06/16 07:51:12;;;;;;;6.43;4.70;;;29.20;99.90;;;;;;5091339;28;20044;-57
2023/06/16 07:53:39;;;;;;;6.47;4.45;;;29.20;99.90;;;;;;5092385;28;20054;-54
2023/06/16 07:56:06;;;;;;;7.57;4.20;;;29.30;99.90;;;;;;5092774;28;20059;-54
2023/06/16 07:58:32;;;;;;;8.07;4.68;;;29.30;99.90;;;;;;5090196;28;20051;-55
2023/06/16 08:00:57;;;;;;;9.43;4.78;;;29.70;99.90;;;;;;5090298;28;20048;-54
2023/06/16 08:03:23;;;;;;;5.75;3.47;;;30.20;99.90;;;;;;5091830;28;20039;-55
2023/06/16 08:05:49;;;;;;;6.43;3.50;;;30.00;99.30;;;;;;5073652;28;20048;-54
2023/06/16 08:08:17;;;;;;;6.05;2.83;;;30.10;98.60;;;;;;5091391;28;20130;-54
2023/06/16 08:10:43;;;;;;;8.95;3.30;;;29.70;97.20;;;;;;5092043;28;20039;-54
2023/06/16 08:13:08;;;;;;;9.85;3.13;;;29.30;96.70;;;;;;5093066;28;20055;-53
2023/06/16 08:15:34;;;;;;;7.10;3.53;;;29.70;96.10;;;;;;5072896;28;20039;-55
2023/06/16 08:18:00;;;;;;;6.25;2.80;;;29.50;96.50;;;;;;5091315;28;20121;-55
2023/06/16 08:20:25;;;;;;;9.77;3.30;;;29.80;96.30;;;;;;5091910;28;20044;-55
2023/06/16 08:22:51;;;;;;;7.38;3.65;;;29.60;96.30;;;;;;5093114;28;20541;-55
2023/06/16 08:25:17;;;;;;;8.07;2.97;;;29.90;96.00;;;;;;5092541;28;20041;-55
2023/06/16 08:27:43;;;;;;;4.90;2.58;;;29.90;95.80;;;;;;5091647;28;20039;-54
2023/06/16 08:30:10;;;;;;;5.07;2.60;;;30.00;95.60;;;;;;5092939;28;20048;-55
2023/06/16 08:32:35;;;;;;;5.97;3.03;;;30.00;95.20;;;;;;5073361;28;20047;-54
2023/06/16 08:35:02;;;;;;;4.53;2.40;;;30.00;95.10;;;;;;5092071;28;20104;-55
2023/06/16 08:37:29;;;;;;;3.90;2.47;;;29.80;95.00;;;;;;5090508;28;20044;-55
2023/06/16 08:39:54;;;;;;;5.88;2.40;;;30.10;94.60;;;;;;5094197;28;20040;-54
2023/06/16 08:42:20;;;;;;;6.03;2.30;;;30.30;94.10;;;;;;5075774;28;20330;-55
2023/06/16 08:44:46;;;;;;;5.72;2.33;;;29.90;93.80;;;;;;5090133;28;20874;-52
2023/06/16 08:47:12;;;;;;;6.78;2.33;;;29.80;93.60;;;;;;5072449;28;20058;-55
2023/06/16 08:49:39;;;;;;;4.40;2.03;;;29.80;93.80;;;;;;5090929;28;20044;-54
2023/06/16 08:52:08;;;;;;;8.30;2.10;;;29.50;93.20;;;;;;5090613;28;21146;-53
2023/06/16 08:54:46;;;;;;;4.80;2.00;;;29.60;93.10;;;;;;5072882;28;20036;-54
2023/06/16 08:57:14;;;;;;;5.70;1.98;;;29.40;92.60;;;;;;5089534;28;20047;-55
2023/06/16 08:59:45;;;;;;;4.57;1.98;;;29.10;92.90;;;;;;5091662;28;20599;-54
2023/06/16 09:02:11;;;;;;;5.25;2.65;;;28.90;92.20;;;;;;5091467;28;20096;-55
2023/06/16 09:04:38;;;;;;;5.28;1.88;;;28.70;92.70;;;;;;5088821;28;20127;-54
2023/06/16 09:07:04;;;;;;;7.80;2.35;;;28.50;92.80;;;;;;5090688;28;20058;-55
2023/06/16 09:09:31;;;;;;;6.18;2.15;;;28.30;93.20;;;;;;5090822;28;20032;-54
2023/06/16 09:12:23;;;;;;;4.63;2.08;;;28.20;93.40;;;;;;5091121;28;20047;-54
2023/06/16 09:14:51;;;;;;;3.70;2.00;;;27.70;94.40;;;;;;5085637;28;20178;-54
2023/06/16 09:17:24;;;;;;;3.67;1.85;;;28.30;94.40;;;;;;5090470;28;20544;-54
2023/06/16 09:19:52;;;;;;;6.13;2.10;;;27.50;94.80;;;;;;5090975;28;20108;-53
2023/06/16 09:22:20;;;;;;;4.60;1.88;;;27.10;94.50;;;;;;5091068;28;20339;-50
2023/06/16 09:24:59;;;;;;;5.00;2.00;;;27.00;95.00;;;;;;5090047;28;20048;-53
2023/06/16 09:27:46;;;;;;;6.45;2.28;;;26.70;95.50;;;;;;5089383;28;20047;-54
2023/06/16 09:30:18;;;;;;;4.45;2.00;;;26.50;95.00;;;;;;5090049;28;20055;-52
2023/06/16 09:32:54;;;;;;;3.75;2.00;;;26.40;95.40;;;;;;5091675;28;21176;-52
2023/06/16 09:35:22;;;;;;;5.70;2.58;;;25.90;95.10;;;;;;5090052;28;20424;-53
2023/06/16 09:37:49;;;;;;;5.68;1.80;;;25.90;95.60;;;;;;5091851;28;20055;-53
2023/06/16 09:40:16;;;;;;;5.03;2.08;;;25.70;95.30;;;;;;5092185;28;20472;-52
2023/06/16 09:42:43;;;;;;;5.78;2.03;;;25.70;95.60;;;;;;5072099;28;20054;-52
2023/06/16 09:45:22;;;;;;;4.85;1.95;;;25.50;95.40;;;;;;5092633;28;20483;-51
2023/06/16 09:47:49;;;;;;;4.07;1.85;;;25.60;96.10;;;;;;5095509;28;20051;-53
2023/06/16 09:50:16;;;;;;;5.18;2.00;;;25.70;95.90;;;;;;5095002;28;20446;-48
2023/06/16 09:52:47;;;;;;;5.25;2.13;;;25.80;95.60;;;;;;5094778;28;20154;-51
2023/06/16 09:55:13;;;;;;;4.85;1.77;;;25.90;95.60;;;;;;5094772;28;20046;-54
2023/06/16 09:57:41;;;;;;;4.57;2.10;;;25.90;95.50;;;;;;5095056;28;20586;-54
2023/06/16 10:00:13;;;;;;;5.55;2.05;;;26.10;95.60;;;;;;5073880;28;20047;-54
2023/06/16 10:02:41;;;;;;;4.53;2.00;;;26.10;95.40;;;;;;5091461;28;20087;-53
2023/06/16 10:05:09;;;;;;;4.78;1.80;;;25.80;95.10;;;;;;5093243;28;20055;-53
2023/06/16 10:07:37;;;;;;;7.72;2.08;;;25.90;95.20;;;;;;5075358;28;20039;-54
2023/06/16 10:10:08;;;;;;;3.90;1.85;;;25.90;95.50;;;;;;5094299;28;20065;-53
2023/06/16 10:12:36;;;;;;;5.10;1.90;;;26.00;94.40;;;;;;5093466;28;20062;-53
2023/06/16 10:15:07;;;;;;;6.00;2.00;;;26.00;95.20;;;;;;5091960;28;20096;-53
2023/06/16 10:17:36;;;;;;;5.93;2.30;;;26.10;94.90;;;;;;5092083;28;20127;-54
2023/06/16 10:20:05;;;;;;;4.43;2.20;;;26.10;94.30;;;;;;5091960;28;20174;-54
2023/06/16 10:22:31;;;;;;;5.85;2.50;;;26.30;95.10;;;;;;5091766;28;20044;-55
2023/06/16 10:25:00;;;;;;;3.70;2.35;;;26.30;94.70;;;;;;5090608;28;20047;-54
2023/06/16 10:27:26;;;;;;;6.75;2.70;;;26.20;94.20;;;;;;5091862;28;20495;-53
2023/06/16 10:29:53;;;;;;;6.05;2.63;;;26.30;94.70;;;;;;5092751;28;20119;-53
2023/06/16 10:32:19;;;;;;;5.20;2.30;;;26.10;94.20;;;;;;5093318;28;20047;-54
2023/06/16 10:34:51;;;;;;;5.07;2.65;;;26.40;94.40;;;;;;5092457;28;20145;-53
2023/06/16 10:37:18;;;;;;;7.97;3.10;;;26.40;94.20;;;;;;5091715;28;20180;-52
2023/06/16 10:39:45;;;;;;;4.82;2.38;;;26.10;93.80;;;;;;5074018;28;20044;-53
2023/06/16 10:42:13;;;;;;;5.53;2.80;;;26.40;94.20;;;;;;5091946;28;20039;-53
2023/06/16 10:44:39;;;;;;;4.95;2.63;;;26.40;95.00;;;;;;5090997;28;20612;-54
2023/06/16 10:47:07;;;;;;;4.85;2.60;;;26.60;94.90;;;;;;5093177;28;20095;-54
2023/06/16 10:49:55;;;;;;;5.75;2.70;;;26.40;94.10;;;;;;5092295;28;20042;-54
2023/06/16 10:52:42;;;;;;;5.28;2.78;;;26.50;94.40;;;;;;5069946;28;20481;-53
2023/06/16 10:55:34;;;;;;;6.38;2.30;;;26.40;93.30;;;;;;5092695;28;20100;-50
2023/06/16 10:58:15;;;;;;;5.03;2.63;;;26.30;93.20;;;;;;5091472;28;20934;-52
2023/06/16 11:00:42;;;;;;;;;;;26.70;94.90;;;;;;5093922;28;20087;-50
2023/06/16 11:03:07;;;;;;;8.88;2.55;;;26.40;94.10;;;;;;5091227;28;19923;-52
2023/06/16 11:05:40;;;;;;;3.92;2.13;;;26.70;94.20;;;;;;5091949;28;20112;-51
2023/06/16 11:08:13;;;;;;;3.95;1.88;;;26.80;93.90;;;;;;5091694;28;20397;-51
2023/06/16 11:10:51;;;;;;;5.43;1.92;;;26.60;93.80;;;;;;5093611;28;20046;-53
2023/06/16 11:13:26;;;;;;;6.85;1.70;;;26.60;94.50;;;;;;5093591;28;20386;-53
2023/06/16 11:15:55;;;;;;;6.75;2.03;;;26.80;93.80;;;;;;5092186;28;20044;-52
2023/06/16 11:18:29;;;;;;;4.90;2.00;;;27.00;94.00;;;;;;5074283;28;20050;-54
2023/06/16 11:21:02;;;;;;;5.30;1.80;;;26.80;93.60;;;;;;5092879;28;20046;-53
2023/06/16 11:23:29;;;;;;;5.50;1.90;;;27.10;93.60;;;;;;5093304;28;20066;-54
2023/06/16 11:26:21;;;;;;;4.85;1.80;;;26.90;93.80;;;;;;5073531;28;20050;-52
2023/06/16 11:28:48;;;;;;;4.00;2.15;;;27.20;93.60;;;;;;5087276;28;20048;-54
2023/06/16 11:31:14;;;;;;;4.30;1.80;;;27.20;93.70;;;;;;5058861;28;20046;-52
2023/06/16 11:33:40;;;;;;;5.10;2.00;;;27.30;93.40;;;;;;5089698;28;20070;-55
2023/06/16 11:36:23;;;;;;;5.43;2.10;;;27.20;93.30;;;;;;5091837;28;20036;-55
2023/06/16 11:38:51;;;;;;;4.85;2.05;;;27.10;92.80;;;;;;5091275;28;20067;-51
2023/06/16 11:41:19;;;;;;;4.50;1.98;;;27.10;93.20;;;;;;5091448;28;20067;-53
2023/06/16 11:43:46;;;;;;;5.50;2.10;;;28.10;93.50;;;;;;5092230;28;20397;-54
2023/06/16 11:46:12;;;;;;;5.55;2.05;;;27.00;93.60;;;;;;5092630;28;20228;-55
2023/06/16 11:48:38;;;;;;;9.88;2.50;;;27.20;94.00;;;;;;5070729;28;20147;-52
2023/06/16 11:51:07;;;;;;;7.25;2.28;;;27.10;93.10;;;;;;5091430;28;20055;-54
2023/06/16 11:53:34;;;;;;;3.70;2.05;;;27.00;93.00;;;;;;5090198;28;20040;-54
2023/06/16 11:56:00;;;;;;;7.78;2.00;;;27.00;93.20;;;;;;5090289;28;20142;-53
2023/06/16 11:58:29;;;;;;;3.60;1.80;;;26.70;93.30;;;;;;5089177;28;20040;-53
2023/06/16 12:01:01;;;;;;;5.88;2.05;;;27.10;93.00;;;;;;5091890;28;20039;-54
2023/06/16 12:03:35;;;;;;;4.88;2.20;;;26.90;93.30;;;;;;5088978;28;20396;-53
2023/06/16 12:06:07;;;;;;;4.07;1.92;;;26.60;92.10;;;;;;5090434;28;20116;-53
2023/06/16 12:08:42;;;;;;;6.03;1.70;;;27.00;93.60;;;;;;5089048;28;20051;-51
2023/06/16 12:11:27;;;;;;;4.68;1.88;;;26.90;92.60;;;;;;5069051;28;20425;-53
2023/06/16 12:13:54;;;;;;;5.85;2.00;;;26.60;92.70;;;;;;5089853;28;20047;-55
2023/06/16 12:16:21;;;;;;;6.28;1.80;;;26.60;93.50;;;;;;5089677;28;20039;-53
2023/06/16 12:18:51;;;;;;;5.72;2.00;;;26.60;93.60;;;;;;5090120;28;20059;-54
2023/06/16 12:21:22;;;;;;;8.55;2.33;;;26.60;93.50;;;;;;5090842;28;20051;-52
2023/06/16 12:23:59;;;;;;;2.72;1.67;;;26.90;94.10;;;;;;5089927;28;20127;-54
2023/06/16 12:26:41;;;;;;;10.52;2.17;;;25.60;92.40;;;;;;5091478;28;20066;-57
2023/06/16 12:29:11;;;;;;;5.63;2.08;;;26.30;93.10;;;;;;5055012;28;20042;-53
2023/06/16 12:31:53;;;;;;;4.93;1.77;;;26.60;93.90;;;;;;5067870;28;20073;-55
2023/06/16 12:34:25;;;;;;;4.63;1.95;;;26.30;92.10;;;;;;5089659;28;24542;-55
2023/06/16 12:36:52;;;;;;;5.93;2.10;;;26.00;93.20;;;;;;5089358;28;20078;-55
2023/06/16 12:39:20;;;;;;;6.20;2.03;;;26.00;93.50;;;;;;5092175;28;20321;-53
2023/06/16 12:42:03;;;;;;;3.30;1.80;;;25.90;93.90;;;;;;5092787;28;20052;-54
2023/06/16 12:44:46;;;;;;;6.90;2.03;;;25.70;93.60;;;;;;5091649;28;20396;-54
2023/06/16 12:47:17;;;;;;;5.50;2.00;;;26.00;93.90;;;;;;5091804;28;20473;-53
2023/06/16 12:49:43;;;;;;;6.55;2.33;;;26.10;94.40;;;;;;5090878;28;20043;-54
2023/06/16 12:52:10;;;;;;;4.28;2.00;;;26.00;93.70;;;;;;5092099;28;20088;-54